HAABHKJK

Guest
Details From HAAB - BOLE INTL
To HKJK - Nairobi Jomo Kanyatta Intl
Flight Number -
Tags generated
Created
Modified
Stats Distance 656 nm / 1,215 km
Max Altitude 34,000 ft / 10,363 m
Waypoints 7
Social Downloads 4
Likes 0
Share VATSIM

Download

Looking for another format? Having issues loading an existing format? Contact us
Advertisement - Login to hide

Notes

Basic altitude profile: - Ascent Rate: 2500ft/min - Ascent Speed: 250kts - Cruise Altitude: 35000ft - Cruise Speed: 420kts - Descent Rate: 1500ft/min - Descent Speed: 250kts Options: - Use NATs: yes - Use PACOTS: yes - Use low airways: yes - Use high airways: yes

Route

HAAB SHALA G650 RUDOL UG650 NAK HKJK

ID Type Via Altitude (ft/m) Position (lat/lon) Dist (leg/tot) Name
O HAAB APT - 0 / 0 8.97789 / 38.79932 - / 0 nm BOLE INTL
SHALA FIX - 32,400 / 9,876 7.48106 / 38.36406 93 / 93 nm
OKNET FIX G650 (AWY-HI) 34,000 / 10,363 6.53819 / 38.13008 58 / 151 nm
RUDOL FIX G650 (AWY-HI) 34,000 / 10,363 3.99696 / 37.41755 158 / 310 nm
LOTAS FIX UG650 (AWY-HI) 32,800 / 9,997 0.99721 / 36.53419 187 / 498 nm
NAK VOR UG650 (AWY-HI) 16,400 / 4,999 -0.30475 / 36.15339 81 / 579 nm NAKURU VOR-DME
O HKJK APT - 0 / 0 -1.31707 / 36.93076 76 / 656 nm Nairobi Jomo Kanyatta Intl

Altitude Profile

Advertisement - Login to hide

Weather


0- 5 10 15 20 25 30 35+ Temperature / °C

Clouds and Precipitation
Forecast for 2019-11-14 06:00 UTC. Updated 3 hours ago

Ground ~20,000 ft ~40,000 ft Winds

HAAB

Details ICAO HAAB (ADD)
Name Bole Intl - Addis Ababa
Region Ethiopia
Timezone Africa/Addis_Ababa (UTC+3.0)
Stats Elevation 7,625 ft / 2,324 m (AMSL)
Location 8.977910° 38.799300°
Runways 2
Magnetic Variation 2.365° E

METAR

HAAB 140500Z 10008KT 9999 BKN025 15/08 Q1027

Decode

TAF

TAF HAAB 140330Z 1406/1412 12009KT 9999 SCT035 SCT090= TAF HADR 140330Z 1406/1512 34005KT 9999 FEW025 SCT080

Decode

Departure Runways

ID Width Length Bearing (true/mag) Surface Threshold Overrun Markings Lighting
07L 148 ft / 45 m 12,151 ft / 3,704 m 73.55° / 71.18° ASPHALT 804 ft / 245 m 0 ft / 0 m PREC-APP REIL-UNI
07R 148 ft / 45 m 12,480 ft / 3,804 m 73.55° / 71.18° ASPHALT 1,197 ft / 365 m 0 ft / 0 m PREC-APP EDGE THRESHOLD SSALR REIL-OMNI
25L 148 ft / 45 m 12,480 ft / 3,804 m 253.55° / 251.19° ASPHALT 1,188 ft / 362 m 0 ft / 0 m PREC-APP EDGE THRESHOLD CALVERT REIL-OMNI
25R 148 ft / 45 m 12,151 ft / 3,704 m 253.55° / 251.19° ASPHALT 1,224 ft / 373 m 0 ft / 0 m PREC-APP REIL-UNI

HKJK

Details ICAO HKJK (NBO)
Name Nairobi-Jomo Kenyatta Intl
Region Kenya
Timezone Africa/Nairobi (UTC+3.0)
Stats Elevation 5,330 ft / 1,625 m (AMSL)
Location -1.316650° 36.931300°
Runways 1
Magnetic Variation 0.645° E

METAR

HKJK 140600Z 03008KT 9999 BKN019 19/16 Q1022 NOSIG

Decode

TAF

TAF HKJK 132300Z 1400/1506 06005KT 9999 BKN021 TEMPO 1400/1406 03005KT -RA FEW006 SCT017 BKN080 BECMG 1408/1411 06010KT BKN024 TEMPO 1412/1418 NSW FEW024 BKN025 BECMG 1420/1423 07005KT BKN021 TEMPO 1500/1506 03005KT -RA FEW007 SCT016 BKN080

Decode

Destination Runways

ID Width Length Bearing (true/mag) Surface Threshold Overrun Markings Lighting
06 148 ft / 45 m 13,528 ft / 4,123 m 53.83° / 53.19° ASPHALT 0 ft / 0 m 194 ft / 59 m PREC-APP CENTERLINE EDGE THRESHOLD ALSF-I REIL-OMNI
24 148 ft / 45 m 13,528 ft / 4,123 m 233.83° / 233.19° ASPHALT 0 ft / 0 m 197 ft / 60 m PREC-APP CENTERLINE EDGE THRESHOLD MALS REIL-OMNI

Approach Navaids

Runway Type Ident Frequency Range Bearing (true/mag) Slope Elevation
06 LOC-ILS NL 110.30 MHz 18 nm / 33 km 53.83° / 53.19 ° - 5,330 ft / 1,625 m (AMSL)
06 GS NL 110.30 MHz 10 nm / 19 km 53.83° / 53.19 ° 3.00° 5,330 ft / 1,625 m (AMSL)
06 OM OM - - 53.90° / 53.26 ° - 5,330 ft / 1,625 m (AMSL)

Popular Alternatives